sensor_id;sensor_type;location;lat;lon;timestamp;temperature;humidity
71082;SHT31;58740;50.672;18.690;2023-07-13T00:01:13;22.75;71.90
71082;SHT31;58740;50.672;18.690;2023-07-13T00:03:43;22.71;71.91
71082;SHT31;58740;50.672;18.690;2023-07-13T00:06:11;22.68;71.88
71082;SHT31;58740;50.672;18.690;2023-07-13T00:08:39;22.64;71.89
71082;SHT31;58740;50.672;18.690;2023-07-13T00:11:08;22.59;71.99
71082;SHT31;58740;50.672;18.690;2023-07-13T00:13:37;22.57;72.07
71082;SHT31;58740;50.672;18.690;2023-07-13T00:16:07;22.55;72.01
71082;SHT31;58740;50.672;18.690;2023-07-13T00:18:37;22.55;71.99
71082;SHT31;58740;50.672;18.690;2023-07-13T00:21:05;22.54;72.02
71082;SHT31;58740;50.672;18.690;2023-07-13T00:23:34;22.50;71.94
71082;SHT31;58740;50.672;18.690;2023-07-13T00:26:06;22.49;72.17
71082;SHT31;58740;50.672;18.690;2023-07-13T00:28:38;22.50;72.13
71082;SHT31;58740;50.672;18.690;2023-07-13T00:31:07;22.50;72.02
71082;SHT31;58740;50.672;18.690;2023-07-13T00:33:37;22.49;72.16
71082;SHT31;58740;50.672;18.690;2023-07-13T00:36:05;22.48;72.08
71082;SHT31;58740;50.672;18.690;2023-07-13T00:38:35;22.48;72.02
71082;SHT31;58740;50.672;18.690;2023-07-13T00:41:03;22.46;72.16
71082;SHT31;58740;50.672;18.690;2023-07-13T00:43:32;22.44;72.15
71082;SHT31;58740;50.672;18.690;2023-07-13T00:48:46;22.41;72.23
71082;SHT31;58740;50.672;18.690;2023-07-13T00:51:21;22.39;72.32
71082;SHT31;58740;50.672;18.690;2023-07-13T00:54:27;22.34;72.49
71082;SHT31;58740;50.672;18.690;2023-07-13T00:57:00;22.34;72.50
71082;SHT31;58740;50.672;18.690;2023-07-13T00:59:35;22.33;72.65
71082;SHT31;58740;50.672;18.690;2023-07-13T01:02:06;22.30;72.75
71082;SHT31;58740;50.672;18.690;2023-07-13T01:04:34;22.27;72.81
71082;SHT31;58740;50.672;18.690;2023-07-13T01:07:02;22.26;72.83
71082;SHT31;58740;50.672;18.690;2023-07-13T01:09:30;22.23;72.89
71082;SHT31;58740;50.672;18.690;2023-07-13T01:11:58;22.22;72.95
71082;SHT31;58740;50.672;18.690;2023-07-13T01:14:26;22.20;73.09
71082;SHT31;58740;50.672;18.690;2023-07-13T01:16:54;22.18;73.17
71082;SHT31;58740;50.672;18.690;2023-07-13T01:22:08;22.11;73.20
71082;SHT31;58740;50.672;18.690;2023-07-13T01:24:40;22.11;73.22
71082;SHT31;58740;50.672;18.690;2023-07-13T01:27:14;22.11;73.22
71082;SHT31;58740;50.672;18.690;2023-07-13T01:29:47;22.11;73.29
71082;SHT31;58740;50.672;18.690;2023-07-13T01:32:16;22.11;73.43
71082;SHT31;58740;50.672;18.690;2023-07-13T01:34:51;22.09;73.68
71082;SHT31;58740;50.672;18.690;2023-07-13T01:37:22;22.06;73.87
71082;SHT31;58740;50.672;18.690;2023-07-13T01:39:53;22.05;73.99
71082;SHT31;58740;50.672;18.690;2023-07-13T01:42:20;22.08;73.85
71082;SHT31;58740;50.672;18.690;2023-07-13T01:45:06;22.09;73.79
71082;SHT31;58740;50.672;18.690;2023-07-13T01:47:34;22.06;73.86
71082;SHT31;58740;50.672;18.690;2023-07-13T01:50:02;22.04;73.97
71082;SHT31;58740;50.672;18.690;2023-07-13T01:52:30;22.05;73.93
71082;SHT31;58740;50.672;18.690;2023-07-13T01:54:58;22.03;73.96
71082;SHT31;58740;50.672;18.690;2023-07-13T01:57:26;22.01;74.13
71082;SHT31;58740;50.672;18.690;2023-07-13T01:59:54;21.97;74.18
71082;SHT31;58740;50.672;18.690;2023-07-13T02:02:22;21.92;74.22
71082;SHT31;58740;50.672;18.690;2023-07-13T02:04:50;21.88;74.34
71082;SHT31;58740;50.672;18.690;2023-07-13T02:07:18;21.80;74.52
71082;SHT31;58740;50.672;18.690;2023-07-13T02:09:46;21.75;74.66
71082;SHT31;58740;50.672;18.690;2023-07-13T02:12:14;21.75;74.77
71082;SHT31;58740;50.672;18.690;2023-07-13T02:14:42;21.75;74.78
71082;SHT31;58740;50.672;18.690;2023-07-13T02:17:10;21.75;74.86
71082;SHT31;58740;50.672;18.690;2023-07-13T02:19:38;21.74;74.90
71082;SHT31;58740;50.672;18.690;2023-07-13T02:22:06;21.74;74.94
71082;SHT31;58740;50.672;18.690;2023-07-13T02:24:34;21.74;74.91
71082;SHT31;58740;50.672;18.690;2023-07-13T02:27:02;21.73;74.95
71082;SHT31;58740;50.672;18.690;2023-07-13T02:29:30;21.76;74.96
71082;SHT31;58740;50.672;18.690;2023-07-13T02:31:57;21.77;74.87
71082;SHT31;58740;50.672;18.690;2023-07-13T02:34:25;21.74;74.88
71082;SHT31;58740;50.672;18.690;2023-07-13T02:36:53;21.72;74.90
71082;SHT31;58740;50.672;18.690;2023-07-13T02:39:21;21.70;74.90
71082;SHT31;58740;50.672;18.690;2023-07-13T02:41:49;21.69;74.92
71082;SHT31;58740;50.672;18.690;2023-07-13T02:44:17;21.67;74.97
71082;SHT31;58740;50.672;18.690;2023-07-13T02:46:45;21.68;74.88
71082;SHT31;58740;50.672;18.690;2023-07-13T02:49:12;21.67;74.79
71082;SHT31;58740;50.672;18.690;2023-07-13T02:51:40;21.66;74.85
71082;SHT31;58740;50.672;18.690;2023-07-13T02:54:08;21.66;74.76
71082;SHT31;58740;50.672;18.690;2023-07-13T02:56:37;21.66;74.52
71082;SHT31;58740;50.672;18.690;2023-07-13T02:59:06;21.66;74.44
71082;SHT31;58740;50.672;18.690;2023-07-13T03:01:34;21.66;74.44
71082;SHT31;58740;50.672;18.690;2023-07-13T03:04:03;21.66;74.52
71082;SHT31;58740;50.672;18.690;2023-07-13T03:06:32;21.63;74.45
71082;SHT31;58740;50.672;18.690;2023-07-13T03:09:00;21.59;74.52
71082;SHT31;58740;50.672;18.690;2023-07-13T03:11:28;21.57;74.61
71082;SHT31;58740;50.672;18.690;2023-07-13T03:13:57;21.54;74.64
71082;SHT31;58740;50.672;18.690;2023-07-13T03:16:25;21.52;74.71
71082;SHT31;58740;50.672;18.690;2023-07-13T03:18:53;21.47;74.82
71082;SHT31;58740;50.672;18.690;2023-07-13T03:21:21;21.44;74.88
71082;SHT31;58740;50.672;18.690;2023-07-13T03:23:49;21.42;75.04
71082;SHT31;58740;50.672;18.690;2023-07-13T03:26:18;21.40;75.14
71082;SHT31;58740;50.672;18.690;2023-07-13T03:28:47;21.39;75.25
71082;SHT31;58740;50.672;18.690;2023-07-13T03:31:16;21.41;75.19
71082;SHT31;58740;50.672;18.690;2023-07-13T03:33:48;21.46;75.19
71082;SHT31;58740;50.672;18.690;2023-07-13T03:36:20;21.47;75.20
71082;SHT31;58740;50.672;18.690;2023-07-13T03:38:53;21.53;75.16
71082;SHT31;58740;50.672;18.690;2023-07-13T03:41:24;21.58;75.11
71082;SHT31;58740;50.672;18.690;2023-07-13T03:43:53;21.60;74.95
71082;SHT31;58740;50.672;18.690;2023-07-13T03:46:21;21.62;75.04
71082;SHT31;58740;50.672;18.690;2023-07-13T03:48:49;21.65;75.11
71082;SHT31;58740;50.672;18.690;2023-07-13T03:51:17;21.66;74.96
71082;SHT31;58740;50.672;18.690;2023-07-13T03:53:46;21.69;74.95
71082;SHT31;58740;50.672;18.690;2023-07-13T03:56:16;21.70;75.01
71082;SHT31;58740;50.672;18.690;2023-07-13T03:58:46;21.76;75.25
71082;SHT31;58740;50.672;18.690;2023-07-13T04:01:17;21.82;74.90
71082;SHT31;58740;50.672;18.690;2023-07-13T04:03:47;21.84;74.82
71082;SHT31;58740;50.672;18.690;2023-07-13T04:06:20;21.90;75.03
71082;SHT31;58740;50.672;18.690;2023-07-13T04:08:53;21.94;74.65
71082;SHT31;58740;50.672;18.690;2023-07-13T04:11:28;21.98;74.93
71082;SHT31;58740;50.672;18.690;2023-07-13T04:13:59;22.01;74.81
71082;SHT31;58740;50.672;18.690;2023-07-13T04:16:27;22.04;74.51
71082;SHT31;58740;50.672;18.690;2023-07-13T04:18:56;22.03;74.52
71082;SHT31;58740;50.672;18.690;2023-07-13T04:21:27;22.04;74.66
71082;SHT31;58740;50.672;18.690;2023-07-13T04:23:57;22.05;74.53
71082;SHT31;58740;50.672;18.690;2023-07-13T04:26:25;22.05;74.59
71082;SHT31;58740;50.672;18.690;2023-07-13T04:28:53;22.06;74.66
71082;SHT31;58740;50.672;18.690;2023-07-13T04:31:22;22.10;74.75
71082;SHT31;58740;50.672;18.690;2023-07-13T04:33:49;22.12;74.57
71082;SHT31;58740;50.672;18.690;2023-07-13T04:36:18;22.11;74.59
71082;SHT31;58740;50.672;18.690;2023-07-13T04:38:46;22.11;74.67
71082;SHT31;58740;50.672;18.690;2023-07-13T04:41:14;22.11;74.48
71082;SHT31;58740;50.672;18.690;2023-07-13T04:43:43;22.11;74.64
71082;SHT31;58740;50.672;18.690;2023-07-13T04:46:11;22.13;74.55
71082;SHT31;58740;50.672;18.690;2023-07-13T04:48:45;22.18;74.46
71082;SHT31;58740;50.672;18.690;2023-07-13T04:51:13;22.22;74.36
71082;SHT31;58740;50.672;18.690;2023-07-13T04:53:40;22.26;74.22
71082;SHT31;58740;50.672;18.690;2023-07-13T04:56:08;22.31;74.23
71082;SHT31;58740;50.672;18.690;2023-07-13T04:58:36;22.37;74.19
71082;SHT31;58740;50.672;18.690;2023-07-13T05:01:05;22.43;73.87
71082;SHT31;58740;50.672;18.690;2023-07-13T05:03:34;22.45;73.61
71082;SHT31;58740;50.672;18.690;2023-07-13T05:06:03;22.48;73.41
71082;SHT31;58740;50.672;18.690;2023-07-13T05:08:34;22.50;73.45
71082;SHT31;58740;50.672;18.690;2023-07-13T05:11:02;22.50;73.05
71082;SHT31;58740;50.672;18.690;2023-07-13T05:13:32;22.52;73.16
71082;SHT31;58740;50.672;18.690;2023-07-13T05:16:06;22.53;72.78
71082;SHT31;58740;50.672;18.690;2023-07-13T05:18:35;22.55;72.97
71082;SHT31;58740;50.672;18.690;2023-07-13T05:21:07;22.58;73.00
71082;SHT31;58740;50.672;18.690;2023-07-13T05:23:38;22.59;72.59
71082;SHT31;58740;50.672;18.690;2023-07-13T05:26:09;22.56;72.38
71082;SHT31;58740;50.672;18.690;2023-07-13T05:28:37;22.56;72.62
71082;SHT31;58740;50.672;18.690;2023-07-13T05:31:09;22.58;72.28
71082;SHT31;58740;50.672;18.690;2023-07-13T05:33:38;22.58;71.99
71082;SHT31;58740;50.672;18.690;2023-07-13T05:36:07;22.58;72.06
71082;SHT31;58740;50.672;18.690;2023-07-13T05:38:36;22.58;71.95
71082;SHT31;58740;50.672;18.690;2023-07-13T05:41:03;22.59;72.11
71082;SHT31;58740;50.672;18.690;2023-07-13T05:43:33;22.63;72.05
71082;SHT31;58740;50.672;18.690;2023-07-13T05:46:01;22.65;71.87
71082;SHT31;58740;50.672;18.690;2023-07-13T05:48:30;22.69;71.80
71082;SHT31;58740;50.672;18.690;2023-07-13T05:50:58;22.72;71.84
71082;SHT31;58740;50.672;18.690;2023-07-13T05:53:26;22.76;71.59
71082;SHT31;58740;50.672;18.690;2023-07-13T05:55:54;22.81;71.65
71082;SHT31;58740;50.672;18.690;2023-07-13T05:58:22;22.88;71.54
71082;SHT31;58740;50.672;18.690;2023-07-13T06:00:57;22.94;71.39
71082;SHT31;58740;50.672;18.690;2023-07-13T06:03:29;23.01;71.02
71082;SHT31;58740;50.672;18.690;2023-07-13T06:05:57;23.08;70.90
71082;SHT31;58740;50.672;18.690;2023-07-13T06:08:27;23.15;70.84
71082;SHT31;58740;50.672;18.690;2023-07-13T06:11:06;23.23;70.54
71082;SHT31;58740;50.672;18.690;2023-07-13T06:13:45;23.33;70.06
71082;SHT31;58740;50.672;18.690;2023-07-13T06:16:14;23.41;69.72
71082;SHT31;58740;50.672;18.690;2023-07-13T06:18:43;23.48;69.83
71082;SHT31;58740;50.672;18.690;2023-07-13T06:21:12;23.55;70.09
71082;SHT31;58740;50.672;18.690;2023-07-13T06:23:46;23.60;70.29
71082;SHT31;58740;50.672;18.690;2023-07-13T06:26:16;23.61;69.60
71082;SHT31;58740;50.672;18.690;2023-07-13T06:28:46;23.62;69.51
71082;SHT31;58740;50.672;18.690;2023-07-13T06:31:15;23.63;69.34
71082;SHT31;58740;50.672;18.690;2023-07-13T06:33:43;23.63;69.29
71082;SHT31;58740;50.672;18.690;2023-07-13T06:36:12;23.66;69.25
71082;SHT31;58740;50.672;18.690;2023-07-13T06:38:40;23.68;69.14
71082;SHT31;58740;50.672;18.690;2023-07-13T06:41:07;23.68;69.13
71082;SHT31;58740;50.672;18.690;2023-07-13T06:43:36;23.67;69.06
71082;SHT31;58740;50.672;18.690;2023-07-13T06:46:04;23.65;69.21
71082;SHT31;58740;50.672;18.690;2023-07-13T06:48:33;23.60;69.30
71082;SHT31;58740;50.672;18.690;2023-07-13T06:51:01;23.58;69.65
71082;SHT31;58740;50.672;18.690;2023-07-13T06:53:29;23.53;70.10
71082;SHT31;58740;50.672;18.690;2023-07-13T06:55:57;23.52;70.11
71082;SHT31;58740;50.672;18.690;2023-07-13T06:58:25;23.54;70.09
71082;SHT31;58740;50.672;18.690;2023-07-13T07:00:53;23.57;70.12
71082;SHT31;58740;50.672;18.690;2023-07-13T07:03:21;23.61;70.22
71082;SHT31;58740;50.672;18.690;2023-07-13T07:05:49;23.64;69.74
71082;SHT31;58740;50.672;18.690;2023-07-13T07:08:17;23.61;69.51
71082;SHT31;58740;50.672;18.690;2023-07-13T07:10:45;23.59;69.56
71082;SHT31;58740;50.672;18.690;2023-07-13T07:13:14;23.54;69.55
71082;SHT31;58740;50.672;18.690;2023-07-13T07:15:42;23.49;69.88
71082;SHT31;58740;50.672;18.690;2023-07-13T07:18:09;23.45;69.75
71082;SHT31;58740;50.672;18.690;2023-07-13T07:20:38;23.37;69.73
71082;SHT31;58740;50.672;18.690;2023-07-13T07:23:05;23.34;69.99
71082;SHT31;58740;50.672;18.690;2023-07-13T07:25:33;23.32;70.25
71082;SHT31;58740;50.672;18.690;2023-07-13T07:28:04;23.29;70.27
71082;SHT31;58740;50.672;18.690;2023-07-13T07:30:35;23.25;70.50
71082;SHT31;58740;50.672;18.690;2023-07-13T07:33:05;23.22;70.64
71082;SHT31;58740;50.672;18.690;2023-07-13T07:35:33;23.12;70.42
71082;SHT31;58740;50.672;18.690;2023-07-13T07:38:06;23.00;70.31
71082;SHT31;58740;50.672;18.690;2023-07-13T07:40:37;22.88;70.18
71082;SHT31;58740;50.672;18.690;2023-07-13T07:43:11;22.70;69.70
71082;SHT31;58740;50.672;18.690;2023-07-13T07:45:40;22.53;69.91
71082;SHT31;58740;50.672;18.690;2023-07-13T07:48:08;22.37;69.60
71082;SHT31;58740;50.672;18.690;2023-07-13T07:50:37;22.21;67.86
71082;SHT31;58740;50.672;18.690;2023-07-13T07:53:06;22.08;67.83
71082;SHT31;58740;50.672;18.690;2023-07-13T07:55:35;21.97;66.97
71082;SHT31;58740;50.672;18.690;2023-07-13T07:58:06;21.88;66.53
71082;SHT31;58740;50.672;18.690;2023-07-13T08:01:01;21.74;66.53
71082;SHT31;58740;50.672;18.690;2023-07-13T08:03:36;21.67;67.43
71082;SHT31;58740;50.672;18.690;2023-07-13T08:06:07;21.67;67.52
71082;SHT31;58740;50.672;18.690;2023-07-13T08:08:37;21.65;66.79
71082;SHT31;58740;50.672;18.690;2023-07-13T08:11:06;21.61;66.43
71082;SHT31;58740;50.672;18.690;2023-07-13T08:13:39;21.55;66.02
71082;SHT31;58740;50.672;18.690;2023-07-13T08:16:26;21.49;65.92
71082;SHT31;58740;50.672;18.690;2023-07-13T08:18:54;21.41;65.93
71082;SHT31;58740;50.672;18.690;2023-07-13T08:21:22;21.35;66.35
71082;SHT31;58740;50.672;18.690;2023-07-13T08:23:50;21.30;66.26
71082;SHT31;58740;50.672;18.690;2023-07-13T08:26:19;21.23;65.95
71082;SHT31;58740;50.672;18.690;2023-07-13T08:28:47;21.15;66.25
71082;SHT31;58740;50.672;18.690;2023-07-13T08:31:15;21.12;66.22
71082;SHT31;58740;50.672;18.690;2023-07-13T08:34:11;21.02;66.54
71082;SHT31;58740;50.672;18.690;2023-07-13T08:36:46;21.00;66.81
71082;SHT31;58740;50.672;18.690;2023-07-13T08:39:16;20.97;66.82
71082;SHT31;58740;50.672;18.690;2023-07-13T08:41:48;20.96;67.28
71082;SHT31;58740;50.672;18.690;2023-07-13T08:44:27;20.95;67.64
71082;SHT31;58740;50.672;18.690;2023-07-13T08:47:14;20.91;67.89
71082;SHT31;58740;50.672;18.690;2023-07-13T08:49:59;20.85;68.73
71082;SHT31;58740;50.672;18.690;2023-07-13T08:55:04;20.67;69.64
71082;SHT31;58740;50.672;18.690;2023-07-13T08:57:45;20.59;70.04
71082;SHT31;58740;50.672;18.690;2023-07-13T09:00:18;20.51;70.55
71082;SHT31;58740;50.672;18.690;2023-07-13T09:02:57;20.47;70.81
71082;SHT31;58740;50.672;18.690;2023-07-13T09:11:10;20.28;72.19
71082;SHT31;58740;50.672;18.690;2023-07-13T09:13:47;20.22;72.54
71082;SHT31;58740;50.672;18.690;2023-07-13T09:16:29;20.13;72.90
71082;SHT31;58740;50.672;18.690;2023-07-13T09:18:59;20.08;73.34
71082;SHT31;58740;50.672;18.690;2023-07-13T09:21:34;20.05;73.81
71082;SHT31;58740;50.672;18.690;2023-07-13T09:27:05;19.92;74.34
71082;SHT31;58740;50.672;18.690;2023-07-13T09:29:46;19.89;74.56
71082;SHT31;58740;50.672;18.690;2023-07-13T09:32:23;19.85;74.53
71082;SHT31;58740;50.672;18.690;2023-07-13T09:34:54;19.78;74.64
71082;SHT31;58740;50.672;18.690;2023-07-13T09:37:24;19.73;74.77
71082;SHT31;58740;50.672;18.690;2023-07-13T09:39:59;19.67;74.92
71082;SHT31;58740;50.672;18.690;2023-07-13T09:42:32;19.66;75.29
71082;SHT31;58740;50.672;18.690;2023-07-13T09:45:01;19.64;75.23
71082;SHT31;58740;50.672;18.690;2023-07-13T09:47:31;19.60;75.24
71082;SHT31;58740;50.672;18.690;2023-07-13T09:50:15;19.56;75.45
71082;SHT31;58740;50.672;18.690;2023-07-13T09:52:45;19.56;75.68
71082;SHT31;58740;50.672;18.690;2023-07-13T09:58:14;19.59;75.96
71082;SHT31;58740;50.672;18.690;2023-07-13T10:00:56;19.62;75.92
71082;SHT31;58740;50.672;18.690;2023-07-13T10:03:28;19.59;75.82
71082;SHT31;58740;50.672;18.690;2023-07-13T10:08:45;19.66;76.00
71082;SHT31;58740;50.672;18.690;2023-07-13T10:11:18;19.71;76.23
71082;SHT31;58740;50.672;18.690;2023-07-13T10:13:57;19.75;75.98
71082;SHT31;58740;50.672;18.690;2023-07-13T10:16:30;19.71;76.04
71082;SHT31;58740;50.672;18.690;2023-07-13T10:19:02;19.69;76.35
71082;SHT31;58740;50.672;18.690;2023-07-13T10:21:50;19.72;76.31
71082;SHT31;58740;50.672;18.690;2023-07-13T10:24:24;19.70;76.02
71082;SHT31;58740;50.672;18.690;2023-07-13T10:29:53;19.72;76.13
71082;SHT31;58740;50.672;18.690;2023-07-13T10:32:32;19.73;76.21
71082;SHT31;58740;50.672;18.690;2023-07-13T10:35:01;19.65;76.22
71082;SHT31;58740;50.672;18.690;2023-07-13T10:37:33;19.63;76.29
71082;SHT31;58740;50.672;18.690;2023-07-13T10:40:27;19.64;76.63
71082;SHT31;58740;50.672;18.690;2023-07-13T10:43:09;19.64;76.42
71082;SHT31;58740;50.672;18.690;2023-07-13T10:45:46;19.62;76.59
71082;SHT31;58740;50.672;18.690;2023-07-13T10:48:17;19.63;76.46
71082;SHT31;58740;50.672;18.690;2023-07-13T10:50:46;19.64;76.58
71082;SHT31;58740;50.672;18.690;2023-07-13T10:53:21;19.60;76.70
71082;SHT31;58740;50.672;18.690;2023-07-13T10:56:01;19.59;76.92
71082;SHT31;58740;50.672;18.690;2023-07-13T10:58:36;19.57;76.94
71082;SHT31;58740;50.672;18.690;2023-07-13T11:01:14;19.59;76.91
71082;SHT31;58740;50.672;18.690;2023-07-13T11:08:57;19.59;77.69
71082;SHT31;58740;50.672;18.690;2023-07-13T11:11:45;19.67;77.48
71082;SHT31;58740;50.672;18.690;2023-07-13T11:16:47;19.76;76.96
71082;SHT31;58740;50.672;18.690;2023-07-13T11:22:10;19.85;77.71
71082;SHT31;58740;50.672;18.690;2023-07-13T11:24:48;19.90;76.95
71082;SHT31;58740;50.672;18.690;2023-07-13T11:27:51;19.96;77.16
71082;SHT31;58740;50.672;18.690;2023-07-13T11:30:38;20.04;77.46
71082;SHT31;58740;50.672;18.690;2023-07-13T11:33:17;20.09;77.58
71082;SHT31;58740;50.672;18.690;2023-07-13T11:38:32;20.17;77.37
71082;SHT31;58740;50.672;18.690;2023-07-13T11:41:22;20.18;77.41
71082;SHT31;58740;50.672;18.690;2023-07-13T11:44:02;20.20;77.62
71082;SHT31;58740;50.672;18.690;2023-07-13T11:46:38;20.26;78.13
71082;SHT31;58740;50.672;18.690;2023-07-13T11:49:14;20.30;77.66
71082;SHT31;58740;50.672;18.690;2023-07-13T11:51:44;20.36;77.62
71082;SHT31;58740;50.672;18.690;2023-07-13T11:57:10;20.39;77.34
71082;SHT31;58740;50.672;18.690;2023-07-13T11:59:53;20.39;77.45
71082;SHT31;58740;50.672;18.690;2023-07-13T12:05:00;20.38;77.24
71082;SHT31;58740;50.672;18.690;2023-07-13T12:07:32;20.42;77.58
71082;SHT31;58740;50.672;18.690;2023-07-13T12:13:05;20.51;77.45
71082;SHT31;58740;50.672;18.690;2023-07-13T12:18:16;20.59;77.53
71082;SHT31;58740;50.672;18.690;2023-07-13T12:20:48;20.65;77.57
71082;SHT31;58740;50.672;18.690;2023-07-13T12:23:24;20.68;77.32
71082;SHT31;58740;50.672;18.690;2023-07-13T12:25:55;20.75;76.92
71082;SHT31;58740;50.672;18.690;2023-07-13T12:28:33;20.80;76.66
71082;SHT31;58740;50.672;18.690;2023-07-13T12:31:07;20.84;76.89
71082;SHT31;58740;50.672;18.690;2023-07-13T12:33:59;20.92;76.78
71082;SHT31;58740;50.672;18.690;2023-07-13T12:36:36;20.92;75.87
71082;SHT31;58740;50.672;18.690;2023-07-13T12:39:14;20.90;75.57
71082;SHT31;58740;50.672;18.690;2023-07-13T12:41:47;20.91;76.01
71082;SHT31;58740;50.672;18.690;2023-07-13T12:44:22;20.93;76.04
71082;SHT31;58740;50.672;18.690;2023-07-13T12:47:02;20.98;76.23
71082;SHT31;58740;50.672;18.690;2023-07-13T12:49:42;20.99;75.68
71082;SHT31;58740;50.672;18.690;2023-07-13T12:52:21;20.95;75.53
71082;SHT31;58740;50.672;18.690;2023-07-13T12:55:20;20.95;75.64
71082;SHT31;58740;50.672;18.690;2023-07-13T12:57:52;20.96;75.66
71082;SHT31;58740;50.672;18.690;2023-07-13T13:00:29;20.97;75.68
71082;SHT31;58740;50.672;18.690;2023-07-13T13:03:05;21.00;75.57
71082;SHT31;58740;50.672;18.690;2023-07-13T13:08:33;21.09;76.21
71082;SHT31;58740;50.672;18.690;2023-07-13T13:11:03;21.07;75.57
71082;SHT31;58740;50.672;18.690;2023-07-13T13:13:32;21.08;75.30
71082;SHT31;58740;50.672;18.690;2023-07-13T13:18:42;21.10;75.02
71082;SHT31;58740;50.672;18.690;2023-07-13T13:21:10;21.16;75.20
71082;SHT31;58740;50.672;18.690;2023-07-13T13:23:38;21.20;75.14
71082;SHT31;58740;50.672;18.690;2023-07-13T13:26:13;21.27;75.64
71082;SHT31;58740;50.672;18.690;2023-07-13T13:28:45;21.34;75.41
71082;SHT31;58740;50.672;18.690;2023-07-13T13:31:15;21.39;75.02
71082;SHT31;58740;50.672;18.690;2023-07-13T13:33:44;21.44;75.36
71082;SHT31;58740;50.672;18.690;2023-07-13T13:36:17;21.48;74.83
71082;SHT31;58740;50.672;18.690;2023-07-13T13:38:49;21.52;74.68
71082;SHT31;58740;50.672;18.690;2023-07-13T13:41:18;21.55;74.04
71082;SHT31;58740;50.672;18.690;2023-07-13T13:43:46;21.54;73.85
71082;SHT31;58740;50.672;18.690;2023-07-13T13:46:18;21.53;73.94
71082;SHT31;58740;50.672;18.690;2023-07-13T13:48:49;21.54;74.13
71082;SHT31;58740;50.672;18.690;2023-07-13T13:51:19;21.56;74.65
71082;SHT31;58740;50.672;18.690;2023-07-13T13:53:51;21.58;74.08
71082;SHT31;58740;50.672;18.690;2023-07-13T13:56:20;21.60;74.38
71082;SHT31;58740;50.672;18.690;2023-07-13T13:58:48;21.64;74.65
71082;SHT31;58740;50.672;18.690;2023-07-13T14:01:17;21.67;74.21
71082;SHT31;58740;50.672;18.690;2023-07-13T14:03:48;21.69;74.01
71082;SHT31;58740;50.672;18.690;2023-07-13T14:06:18;21.70;73.93
71082;SHT31;58740;50.672;18.690;2023-07-13T14:08:47;21.70;74.00
71082;SHT31;58740;50.672;18.690;2023-07-13T14:11:15;21.70;74.11
71082;SHT31;58740;50.672;18.690;2023-07-13T14:13:52;21.69;73.83
71082;SHT31;58740;50.672;18.690;2023-07-13T14:16:27;21.72;74.02
71082;SHT31;58740;50.672;18.690;2023-07-13T14:19:01;21.76;73.36
71082;SHT31;58740;50.672;18.690;2023-07-13T14:21:29;21.79;72.81
71082;SHT31;58740;50.672;18.690;2023-07-13T14:23:57;21.82;72.65
71082;SHT31;58740;50.672;18.690;2023-07-13T14:26:25;21.85;72.43
71082;SHT31;58740;50.672;18.690;2023-07-13T14:28:55;21.90;72.69
71082;SHT31;58740;50.672;18.690;2023-07-13T14:31:25;21.95;72.26
71082;SHT31;58740;50.672;18.690;2023-07-13T14:33:58;21.98;71.43
71082;SHT31;58740;50.672;18.690;2023-07-13T14:36:30;22.00;70.96
71082;SHT31;58740;50.672;18.690;2023-07-13T14:39:09;22.06;70.62
71082;SHT31;58740;50.672;18.690;2023-07-13T14:41:43;22.10;70.21
71082;SHT31;58740;50.672;18.690;2023-07-13T14:44:13;22.14;70.06
71082;SHT31;58740;50.672;18.690;2023-07-13T14:46:48;22.16;70.12
71082;SHT31;58740;50.672;18.690;2023-07-13T14:52:01;22.12;69.36
71082;SHT31;58740;50.672;18.690;2023-07-13T14:54:39;22.10;69.15
71082;SHT31;58740;50.672;18.690;2023-07-13T14:57:18;22.02;68.58
71082;SHT31;58740;50.672;18.690;2023-07-13T14:59:47;22.00;69.04
71082;SHT31;58740;50.672;18.690;2023-07-13T15:02:17;21.99;69.47
71082;SHT31;58740;50.672;18.690;2023-07-13T15:04:54;21.99;68.88
71082;SHT31;58740;50.672;18.690;2023-07-13T15:07:23;21.99;68.93
71082;SHT31;58740;50.672;18.690;2023-07-13T15:09:52;22.02;68.58
71082;SHT31;58740;50.672;18.690;2023-07-13T15:12:20;22.02;68.05
71082;SHT31;58740;50.672;18.690;2023-07-13T15:14:47;22.02;67.87
71082;SHT31;58740;50.672;18.690;2023-07-13T15:17:22;22.04;67.64
71082;SHT31;58740;50.672;18.690;2023-07-13T15:19:58;22.06;68.07
71082;SHT31;58740;50.672;18.690;2023-07-13T15:22:27;22.08;67.82
71082;SHT31;58740;50.672;18.690;2023-07-13T15:24:55;22.09;66.98
71082;SHT31;58740;50.672;18.690;2023-07-13T15:27:27;22.09;67.44
71082;SHT31;58740;50.672;18.690;2023-07-13T15:29:55;22.07;67.56
71082;SHT31;58740;50.672;18.690;2023-07-13T15:32:22;22.04;67.23
71082;SHT31;58740;50.672;18.690;2023-07-13T15:34:50;22.04;67.01
71082;SHT31;58740;50.672;18.690;2023-07-13T15:37:18;22.02;67.01
71082;SHT31;58740;50.672;18.690;2023-07-13T15:39:48;22.02;66.91
71082;SHT31;58740;50.672;18.690;2023-07-13T15:42:16;22.01;67.23
71082;SHT31;58740;50.672;18.690;2023-07-13T15:44:46;22.01;66.89
71082;SHT31;58740;50.672;18.690;2023-07-13T15:47:15;22.00;66.86
71082;SHT31;58740;50.672;18.690;2023-07-13T15:49:43;21.98;66.75
71082;SHT31;58740;50.672;18.690;2023-07-13T15:52:15;21.98;66.87
71082;SHT31;58740;50.672;18.690;2023-07-13T15:54:50;22.00;66.50
71082;SHT31;58740;50.672;18.690;2023-07-13T15:57:18;22.01;66.03
71082;SHT31;58740;50.672;18.690;2023-07-13T15:59:47;22.03;66.13
71082;SHT31;58740;50.672;18.690;2023-07-13T16:02:16;22.07;66.01
71082;SHT31;58740;50.672;18.690;2023-07-13T16:04:46;22.09;65.47
71082;SHT31;58740;50.672;18.690;2023-07-13T16:07:15;22.10;65.84
71082;SHT31;58740;50.672;18.690;2023-07-13T16:09:45;22.11;65.77
71082;SHT31;58740;50.672;18.690;2023-07-13T16:12:14;22.13;65.96
71082;SHT31;58740;50.672;18.690;2023-07-13T16:14:43;22.14;65.65
71082;SHT31;58740;50.672;18.690;2023-07-13T16:17:12;22.15;65.44
71082;SHT31;58740;50.672;18.690;2023-07-13T16:19:41;22.15;64.64
71082;SHT31;58740;50.672;18.690;2023-07-13T16:22:13;22.15;64.76
71082;SHT31;58740;50.672;18.690;2023-07-13T16:24:46;22.16;64.50
71082;SHT31;58740;50.672;18.690;2023-07-13T16:27:14;22.16;64.51
71082;SHT31;58740;50.672;18.690;2023-07-13T16:29:42;22.16;64.77
71082;SHT31;58740;50.672;18.690;2023-07-13T16:32:11;22.18;65.08
71082;SHT31;58740;50.672;18.690;2023-07-13T16:34:41;22.17;65.07
71082;SHT31;58740;50.672;18.690;2023-07-13T16:37:15;22.15;64.36
71082;SHT31;58740;50.672;18.690;2023-07-13T16:39:56;22.14;64.05